Glace, West Virginia
Current Conditions -  °F | °C
As of 3:55 AM on Wednesday 26 Nov 2014 (Local Time) from KLWB Reporting Station
Moderate Rain Moderate Rain  
Wind Chill: 40°   Ceiling: 1400
Heat Index: 40°   Visibility: 5mi
Dew Point: 33°   Wind: 0mph
Humidity: 77%   Direction: NA
Pressure: 30.03"   Gusts: NA
Location:  37.68°N, 80.34°W
Report Text: KLWB 260855Z AUTO 00000KT 5SM RA BKN014 OVC022 05/01 A3003 RMK AO2 T00460008
Loading
Personal Weather Stations






























Interactive Weather Map New forecast layout! Learn more

10-Day Weather Forecast

Advertisements
Track Severe Weather on mobile